createdAt,value
2017-10-02T00:00:38.430Z,14.36
2017-10-02T00:01:38.457Z,14.4
2017-10-02T00:02:38.471Z,14.35
2017-10-02T00:03:38.498Z,14.37
2017-10-02T00:04:38.534Z,14.44
2017-10-02T00:05:38.539Z,14.43
2017-10-02T00:06:38.872Z,14.4
2017-10-02T00:07:38.579Z,14.53
2017-10-02T00:08:38.597Z,14.5
2017-10-02T00:09:38.612Z,14.45
2017-10-02T00:10:38.953Z,14.36
2017-10-02T00:11:38.655Z,14.33
2017-10-02T00:12:38.676Z,14.43
2017-10-02T00:13:38.698Z,14.44
2017-10-02T00:14:38.720Z,14.5
2017-10-02T00:15:38.748Z,14.53
2017-10-02T00:16:38.808Z,14.36
2017-10-02T00:17:38.779Z,14.35
2017-10-02T00:18:38.801Z,14.32
2017-10-02T00:19:38.819Z,14.33
2017-10-02T00:20:38.859Z,14.35
2017-10-02T00:21:38.865Z,14.36
2017-10-02T00:22:38.891Z,14.33
2017-10-02T00:23:38.911Z,14.29
2017-10-02T00:24:38.923Z,14.32
2017-10-02T00:25:39.258Z,14.47
2017-10-02T00:26:38.970Z,14.45
2017-10-02T00:27:38.980Z,14.45
2017-10-02T00:28:39.007Z,14.51
2017-10-02T00:29:39.341Z,14.32
2017-10-02T00:30:39.042Z,14.44
2017-10-02T00:31:39.068Z,14.5
2017-10-02T00:32:39.084Z,14.48
2017-10-02T00:33:39.103Z,14.55
2017-10-02T00:34:39.131Z,14.43
2017-10-02T00:35:39.144Z,14.43
2017-10-02T00:36:39.167Z,14.5
2017-10-02T00:37:39.189Z,14.47
2017-10-02T00:38:39.517Z,14.43
2017-10-02T00:39:39.228Z,14.53
2017-10-02T00:40:39.249Z,14.48
2017-10-02T00:41:39.277Z,14.53
2017-10-02T00:42:39.287Z,14.5
2017-10-02T00:43:39.308Z,14.45
2017-10-02T00:44:39.329Z,14.48
2017-10-02T00:45:39.349Z,14.44
2017-10-02T00:46:39.372Z,14.32
2017-10-02T00:47:39.390Z,14.44
2017-10-02T00:48:39.413Z,14.47
2017-10-02T00:49:39.431Z,14.48
2017-10-02T00:50:39.449Z,14.6
2017-10-02T00:51:39.789Z,14.51
2017-10-02T00:52:39.809Z,14.55
2017-10-02T00:53:39.514Z,14.53
2017-10-02T00:54:39.531Z,14.6
2017-10-02T00:55:39.864Z,14.63
2017-10-02T00:56:39.574Z,14.58
2017-10-02T00:57:39.606Z,14.65
2017-10-02T00:58:39.614Z,14.62
2017-10-02T00:59:39.637Z,14.63
2017-10-02T01:00:39.665Z,14.59
2017-10-02T01:01:39.986Z,14.62
2017-10-02T01:02:39.702Z,14.51
2017-10-02T01:03:39.720Z,14.62
2017-10-02T01:04:40.053Z,14.59
2017-10-02T01:05:39.760Z,14.6
2017-10-02T01:06:39.778Z,14.62
2017-10-02T01:07:39.796Z,14.58
2017-10-02T01:08:39.823Z,14.51
2017-10-02T01:09:39.839Z,14.55
2017-10-02T01:10:39.864Z,14.53
2017-10-02T01:11:39.885Z,14.51
2017-10-02T01:12:39.924Z,14.65
2017-10-02T01:13:39.928Z,14.66
2017-10-02T01:14:39.966Z,14.65
2017-10-02T01:15:39.961Z,14.6
2017-10-02T01:16:39.981Z,14.6
2017-10-02T01:17:40.008Z,14.63
2017-10-02T01:18:40.021Z,14.58
2017-10-02T01:19:40.064Z,14.59
2017-10-02T01:20:40.380Z,14.62
2017-10-02T01:21:40.082Z,14.54
2017-10-02T01:22:40.413Z,14.62
2017-10-02T01:23:40.125Z,14.51
2017-10-02T01:24:40.144Z,14.58
2017-10-02T01:25:40.161Z,14.55
2017-10-02T01:26:40.183Z,14.58
2017-10-02T01:27:40.204Z,14.51
2017-10-02T01:28:40.229Z,14.55
2017-10-02T01:29:40.250Z,14.55
2017-10-02T01:30:41.513Z,14.33
2017-10-02T01:31:41.462Z,14.33
2017-10-02T01:32:40.614Z,14.33
2017-10-02T01:33:40.324Z,14.3
2017-10-02T01:34:40.659Z,14.29
2017-10-02T01:35:40.390Z,14.32
2017-10-02T01:36:40.388Z,14.22
2017-10-02T01:37:40.458Z,14.22
2017-10-02T01:38:40.426Z,14.23
2017-10-02T01:39:40.773Z,14.08
2017-10-02T01:40:40.479Z,14.18
2017-10-02T01:41:40.498Z,14.05
2017-10-02T01:42:40.512Z,14.07
2017-10-02T01:43:40.535Z,14.03
2017-10-02T01:44:40.552Z,14.08
2017-10-02T01:45:40.884Z,14.04
2017-10-02T01:46:40.598Z,14.03
2017-10-02T01:47:40.662Z,13.99
2017-10-02T01:48:40.639Z,14.04
2017-10-02T01:49:40.653Z,14.1
2017-10-02T01:50:40.989Z,14.03
2017-10-02T01:51:40.716Z,14
2017-10-02T01:52:40.768Z,13.99
2017-10-02T01:53:41.050Z,14.08
2017-10-02T01:54:40.769Z,14.08
2017-10-02T01:55:40.774Z,14.2
2017-10-02T01:56:40.796Z,14.17
2017-10-02T01:57:40.813Z,14.14
2017-10-02T01:58:40.864Z,14.2
2017-10-02T01:59:41.172Z,14.05
2017-10-02T02:00:40.874Z,14.04
2017-10-02T02:01:40.897Z,14.05
2017-10-02T02:02:40.919Z,14.17
2017-10-02T02:03:41.257Z,14.23
2017-10-02T02:04:40.963Z,14.18
2017-10-02T02:05:40.986Z,14.25
2017-10-02T02:06:41.001Z,14.25
2017-10-02T02:07:41.018Z,14.18
2017-10-02T02:08:41.043Z,13.99
2017-10-02T02:09:41.058Z,14.11
2017-10-02T02:10:41.081Z,14.18
2017-10-02T02:11:41.099Z,14.05
2017-10-02T02:12:41.139Z,14.11
2017-10-02T02:13:41.137Z,13.99
2017-10-02T02:14:41.160Z,13.96
2017-10-02T02:15:41.184Z,13.85
2017-10-02T02:16:41.205Z,13.9
2017-10-02T02:17:41.219Z,14
2017-10-02T02:18:41.238Z,13.97
2017-10-02T02:19:41.572Z,13.97
2017-10-02T02:20:41.286Z,14.05
2017-10-02T02:21:41.303Z,13.89
2017-10-02T02:22:41.322Z,13.95
2017-10-02T02:23:41.659Z,13.9
2017-10-02T02:24:41.368Z,13.89
2017-10-02T02:25:41.382Z,13.92
2017-10-02T02:26:41.402Z,13.9
2017-10-02T02:27:41.434Z,13.93
2017-10-02T02:28:41.466Z,13.85
2017-10-02T02:29:41.467Z,13.79
2017-10-02T02:30:41.484Z,13.65
2017-10-02T02:31:41.505Z,13.68
2017-10-02T02:32:41.523Z,13.6
2017-10-02T02:33:41.547Z,13.68
2017-10-02T02:34:41.566Z,13.65
2017-10-02T02:35:41.584Z,13.59
2017-10-02T02:36:41.610Z,13.57
2017-10-02T02:37:41.631Z,13.63
2017-10-02T02:38:41.642Z,13.53
2017-10-02T02:39:41.662Z,13.46
2017-10-02T02:40:41.684Z,13.46
2017-10-02T02:41:41.703Z,13.44
2017-10-02T02:42:41.721Z,13.41
2017-10-02T02:43:41.750Z,13.5
2017-10-02T02:44:41.760Z,13.35
2017-10-02T02:45:41.784Z,13.33
2017-10-02T02:46:41.806Z,13.3
2017-10-02T02:47:42.135Z,13.28
2017-10-02T02:48:41.849Z,13.27
2017-10-02T02:49:41.861Z,13.28
2017-10-02T02:50:41.883Z,13.27
2017-10-02T02:51:41.902Z,13.41
2017-10-02T02:52:41.925Z,13.47
2017-10-02T02:53:41.942Z,13.39
2017-10-02T02:54:41.967Z,13.46
2017-10-02T02:55:41.978Z,13.5
2017-10-02T02:56:41.998Z,13.47
2017-10-02T02:57:42.018Z,13.47
2017-10-02T02:58:42.039Z,13.54
2017-10-02T02:59:42.070Z,13.41
2017-10-02T03:00:42.078Z,13.42
2017-10-02T03:01:42.103Z,13.41
2017-10-02T03:02:42.115Z,13.49
2017-10-02T03:03:42.145Z,13.42
2017-10-02T03:04:42.170Z,13.41
2017-10-02T03:05:42.183Z,13.54
2017-10-02T03:06:42.205Z,13.56
2017-10-02T03:07:42.217Z,13.5
2017-10-02T03:08:42.237Z,13.44
2017-10-02T03:09:42.253Z,13.49
2017-10-02T03:10:42.272Z,13.49
2017-10-02T03:11:42.296Z,13.41
2017-10-02T03:12:42.311Z,13.33
2017-10-02T03:13:42.646Z,13.46
2017-10-02T03:14:42.355Z,13.5
2017-10-02T03:15:42.689Z,13.35
2017-10-02T03:16:42.396Z,13.33
2017-10-02T03:17:42.415Z,13.49
2017-10-02T03:18:42.440Z,13.38
2017-10-02T03:19:42.458Z,13.47
2017-10-02T03:20:42.497Z,13.5
2017-10-02T03:21:42.492Z,13.53
2017-10-02T03:22:42.511Z,13.39
2017-10-02T03:23:42.838Z,13.56
2017-10-02T03:24:42.556Z,13.57
2017-10-02T03:25:42.573Z,13.6
2017-10-02T03:26:42.590Z,13.57
2017-10-02T03:27:42.613Z,13.59
2017-10-02T03:28:42.638Z,13.5
2017-10-02T03:29:42.654Z,13.49
2017-10-02T03:30:42.674Z,13.44
2017-10-02T03:31:42.741Z,13.44
2017-10-02T03:32:42.712Z,13.38
2017-10-02T03:33:42.729Z,13.33
2017-10-02T03:34:42.750Z,13.44
2017-10-02T03:35:42.780Z,13.54
2017-10-02T03:36:42.791Z,13.52
2017-10-02T03:37:42.805Z,13.5
2017-10-02T03:38:42.827Z,13.39
2017-10-02T03:39:42.854Z,13.52
2017-10-02T03:40:42.867Z,13.41
2017-10-02T03:41:43.199Z,13.41
2017-10-02T03:42:43.223Z,13.39
2017-10-02T03:43:42.932Z,13.44
2017-10-02T03:44:42.951Z,13.41
2017-10-02T03:45:42.972Z,13.46
2017-10-02T03:46:42.986Z,13.35
2017-10-02T03:47:43.008Z,13.31
2017-10-02T03:48:43.028Z,13.25
2017-10-02T03:49:43.054Z,13.09
2017-10-02T03:50:43.117Z,13.03
2017-10-02T03:51:43.107Z,13.03
2017-10-02T03:52:43.105Z,12.97
2017-10-02T03:53:43.125Z,12.93
2017-10-02T03:54:43.147Z,13
2017-10-02T03:55:43.166Z,12.93
2017-10-02T03:56:43.188Z,12.86
2017-10-02T03:57:43.209Z,12.94
2017-10-02T03:58:43.229Z,12.98
2017-10-02T03:59:43.562Z,12.78
2017-10-02T04:00:43.268Z,12.82
2017-10-02T04:01:43.298Z,12.87
2017-10-02T04:02:43.636Z,12.93
2017-10-02T04:03:43.336Z,12.95
2017-10-02T04:04:43.342Z,12.95
2017-10-02T04:05:43.364Z,12.95
2017-10-02T04:06:43.757Z,13.03
2017-10-02T04:07:43.403Z,12.98
2017-10-02T04:08:43.422Z,12.91
2017-10-02T04:09:43.450Z,12.95
2017-10-02T04:10:43.458Z,12.95
2017-10-02T04:11:43.480Z,13.04
2017-10-02T04:12:43.504Z,13.09
2017-10-02T04:13:43.521Z,12.95
2017-10-02T04:14:43.540Z,13.04
2017-10-02T04:15:43.555Z,13
2017-10-02T04:16:43.577Z,13.11
2017-10-02T04:17:43.595Z,13.11
2017-10-02T04:18:43.617Z,13.08
2017-10-02T04:19:43.638Z,13.09
2017-10-02T04:20:43.968Z,13.09
2017-10-02T04:21:43.680Z,13.05
2017-10-02T04:22:43.713Z,12.95
2017-10-02T04:23:43.717Z,12.97
2017-10-02T04:24:43.740Z,12.95
2017-10-02T04:25:43.751Z,12.86
2017-10-02T04:26:43.776Z,12.86
2017-10-02T04:27:44.111Z,12.91
2017-10-02T04:28:43.815Z,12.91
2017-10-02T04:29:43.833Z,12.76
2017-10-02T04:30:43.857Z,12.76
2017-10-02T04:31:43.880Z,12.76
2017-10-02T04:32:43.891Z,12.6
2017-10-02T04:33:43.911Z,12.4
2017-10-02T04:34:43.938Z,12.35
2017-10-02T04:35:43.944Z,12.4
2017-10-02T04:36:43.971Z,12.31
2017-10-02T04:37:43.996Z,12.43
2017-10-02T04:38:44.009Z,12.46
2017-10-02T04:39:44.337Z,12.58
2017-10-02T04:40:44.043Z,12.67
2017-10-02T04:41:44.113Z,12.67
2017-10-02T04:42:44.085Z,12.65
2017-10-02T04:43:44.126Z,12.68
2017-10-02T04:44:44.123Z,12.67
2017-10-02T04:45:44.142Z,12.65
2017-10-02T04:46:44.162Z,12.75
2017-10-02T04:47:44.190Z,12.76
2017-10-02T04:48:44.515Z,12.83
2017-10-02T04:49:44.225Z,12.78
2017-10-02T04:50:44.241Z,12.72
2017-10-02T04:51:44.260Z,12.75
2017-10-02T04:52:44.281Z,12.82
2017-10-02T04:53:44.297Z,12.78
2017-10-02T04:54:44.641Z,12.91
2017-10-02T04:55:44.340Z,12.82
2017-10-02T04:56:44.364Z,12.87
2017-10-02T04:57:44.380Z,12.86
2017-10-02T04:58:44.416Z,12.95
2017-10-02T04:59:44.468Z,12.97
2017-10-02T05:00:44.748Z,12.98
2017-10-02T05:01:44.454Z,12.87
2017-10-02T05:02:44.489Z,12.9
2017-10-02T05:03:44.494Z,12.91
2017-10-02T05:04:44.517Z,12.85
2017-10-02T05:05:44.538Z,12.87
2017-10-02T05:06:44.553Z,12.83
2017-10-02T05:07:44.580Z,12.91
2017-10-02T05:08:44.594Z,12.94
2017-10-02T05:09:44.612Z,12.93
2017-10-02T05:10:44.633Z,12.95
2017-10-02T05:11:44.652Z,12.91
2017-10-02T05:12:44.671Z,13
2017-10-02T05:13:45.017Z,13.03
2017-10-02T05:14:44.761Z,13.01
2017-10-02T05:15:44.733Z,13.04
2017-10-02T05:16:44.751Z,13.11
2017-10-02T05:17:45.091Z,13.16
2017-10-02T05:18:44.789Z,13.13
2017-10-02T05:19:44.808Z,13.12
2017-10-02T05:20:44.824Z,13.01
2017-10-02T05:21:44.849Z,13.03
2017-10-02T05:22:44.875Z,13.08
2017-10-02T05:23:44.889Z,12.98
2017-10-02T05:24:44.909Z,12.91
2017-10-02T05:25:44.930Z,12.95
2017-10-02T05:26:44.944Z,12.91
2017-10-02T05:27:44.965Z,13
2017-10-02T05:28:44.988Z,12.95
2017-10-02T05:29:45.010Z,12.98
2017-10-02T05:30:45.021Z,12.95
2017-10-02T05:31:45.350Z,12.95
2017-10-02T05:32:45.067Z,12.93
2017-10-02T05:33:45.086Z,12.91
2017-10-02T05:34:45.103Z,12.78
2017-10-02T05:35:45.129Z,12.78
2017-10-02T05:36:45.147Z,12.72
2017-10-02T05:37:45.159Z,12.82
2017-10-02T05:38:45.183Z,12.82
2017-10-02T05:39:45.199Z,12.85
2017-10-02T05:40:45.222Z,12.86
2017-10-02T05:41:45.233Z,12.91
2017-10-02T05:42:45.258Z,12.9
2017-10-02T05:43:45.278Z,12.9
2017-10-02T05:44:45.622Z,12.91
2017-10-02T05:45:45.313Z,12.85
2017-10-02T05:46:45.335Z,12.91
2017-10-02T05:47:45.363Z,12.97
2017-10-02T05:48:45.428Z,12.86
2017-10-02T05:49:45.397Z,12.93
2017-10-02T05:50:45.416Z,12.98
2017-10-02T05:51:45.432Z,12.91
2017-10-02T05:52:45.759Z,12.85
2017-10-02T05:53:45.790Z,12.76
2017-10-02T05:54:45.492Z,12.7
2017-10-02T05:55:45.514Z,12.75
2017-10-02T05:56:45.533Z,12.68
2017-10-02T05:57:45.549Z,12.75
2017-10-02T05:58:45.571Z,12.79
2017-10-02T05:59:45.597Z,12.87
2017-10-02T06:00:45.610Z,12.85
2017-10-02T06:01:45.629Z,12.82
2017-10-02T06:02:45.648Z,12.8
2017-10-02T06:03:45.671Z,12.82
2017-10-02T06:04:45.689Z,12.91
2017-10-02T06:05:45.707Z,12.79
2017-10-02T06:06:45.728Z,12.62
2017-10-02T06:07:45.817Z,12.73
2017-10-02T06:08:45.771Z,12.6
2017-10-02T06:09:45.789Z,12.62
2017-10-02T06:10:45.813Z,12.58
2017-10-02T06:11:45.830Z,12.57
2017-10-02T06:12:45.850Z,12.61
2017-10-02T06:13:45.868Z,12.68
2017-10-02T06:14:45.885Z,12.76
2017-10-02T06:15:45.924Z,12.64
2017-10-02T06:16:45.924Z,12.73
2017-10-02T06:17:45.949Z,12.75
2017-10-02T06:18:45.963Z,12.82
2017-10-02T06:19:45.989Z,12.8
2017-10-02T06:20:46.325Z,12.91
2017-10-02T06:21:46.023Z,12.93
2017-10-02T06:22:46.101Z,12.95
2017-10-02T06:23:46.068Z,12.97
2017-10-02T06:24:46.084Z,12.97
2017-10-02T06:25:46.113Z,12.8
2017-10-02T06:26:46.123Z,12.73
2017-10-02T06:27:46.144Z,12.75
2017-10-02T06:28:46.476Z,12.8
2017-10-02T06:29:46.182Z,12.86
2017-10-02T06:30:46.207Z,12.86
2017-10-02T06:31:46.526Z,12.97
2017-10-02T06:32:46.244Z,13.05
2017-10-02T06:33:46.265Z,13.13
2017-10-02T06:34:46.283Z,13.28
2017-10-02T06:35:46.310Z,13.13
2017-10-02T06:36:46.344Z,13.16
2017-10-02T06:37:46.343Z,13.27
2017-10-02T06:38:46.373Z,13.28
2017-10-02T06:39:46.382Z,13.27
2017-10-02T06:40:46.452Z,13.31
2017-10-02T06:41:46.420Z,13.27
2017-10-02T06:42:46.453Z,13.22
2017-10-02T06:43:46.461Z,13.13
2017-10-02T06:44:46.479Z,13.31
2017-10-02T06:45:46.517Z,13.18
2017-10-02T06:46:46.521Z,13.33
2017-10-02T06:47:46.872Z,13.33
2017-10-02T06:48:46.566Z,13.46
2017-10-02T06:49:46.582Z,13.35
2017-10-02T06:50:46.603Z,13.31
2017-10-02T06:51:46.633Z,13.44
2017-10-02T06:52:46.678Z,13.59
2017-10-02T06:53:46.662Z,13.68
2017-10-02T06:54:46.684Z,13.71
2017-10-02T06:55:46.751Z,13.83
2017-10-02T06:56:46.725Z,13.81
2017-10-02T06:57:46.749Z,13.87
2017-10-02T06:58:46.760Z,13.86
2017-10-02T06:59:46.781Z,13.83
2017-10-02T07:00:46.806Z,13.83
2017-10-02T07:01:46.824Z,13.83
2017-10-02T07:02:47.156Z,13.97
2017-10-02T07:03:46.871Z,14.04
2017-10-02T07:04:46.886Z,14.25
2017-10-02T07:05:46.975Z,14.26
2017-10-02T07:06:46.935Z,14.2
2017-10-02T07:07:46.954Z,14.25
2017-10-02T07:08:46.980Z,14.22
2017-10-02T07:09:46.986Z,14.28
2017-10-02T07:10:47.059Z,14.29
2017-10-02T07:11:47.030Z,14.6
2017-10-02T07:12:47.047Z,14.55
2017-10-02T07:13:47.075Z,14.6
2017-10-02T07:14:47.089Z,14.65
2017-10-02T07:15:47.120Z,14.73
2017-10-02T07:16:47.140Z,14.79
2017-10-02T07:17:47.158Z,14.77
2017-10-02T07:18:47.180Z,14.78
2017-10-02T07:19:47.204Z,14.91
2017-10-02T07:20:47.214Z,14.96
2017-10-02T07:21:47.295Z,15
2017-10-02T07:22:47.261Z,15.09
2017-10-02T07:23:47.287Z,15.15
2017-10-02T07:24:47.311Z,15.21
2017-10-02T07:25:47.325Z,15.21
2017-10-02T07:26:47.710Z,15.21
2017-10-02T07:27:47.368Z,15.29
2017-10-02T07:28:47.392Z,15.33
2017-10-02T07:29:47.728Z,15.18
2017-10-02T07:30:47.435Z,14.92
2017-10-02T07:31:47.452Z,14.97
2017-10-02T07:32:47.476Z,14.91
2017-10-02T07:33:47.504Z,14.96
2017-10-02T07:34:47.531Z,15.14
2017-10-02T07:35:47.536Z,15.24
2017-10-02T07:36:47.558Z,15.35
2017-10-02T07:37:47.580Z,15.39
2017-10-02T07:38:47.600Z,15.21
2017-10-02T07:39:47.628Z,15.27
2017-10-02T07:40:47.646Z,15.36
2017-10-02T07:41:47.668Z,15.35
2017-10-02T07:42:47.689Z,15.42
2017-10-02T07:43:47.719Z,15.62
2017-10-02T07:44:47.729Z,15.62
2017-10-02T07:45:47.755Z,15.61
2017-10-02T07:46:47.780Z,15.65
2017-10-02T07:47:47.799Z,15.75
2017-10-02T07:48:47.817Z,15.73
2017-10-02T07:49:47.839Z,15.8
2017-10-02T07:50:47.863Z,15.72
2017-10-02T07:51:47.892Z,15.76
2017-10-02T07:52:47.920Z,15.84
2017-10-02T07:53:47.925Z,15.67
2017-10-02T07:54:48.258Z,15.91
2017-10-02T07:55:47.975Z,16.01
2017-10-02T07:56:47.992Z,15.98
2017-10-02T07:57:48.061Z,16.02
2017-10-02T07:58:48.037Z,16
2017-10-02T07:59:48.054Z,16
2017-10-02T08:00:48.078Z,16.12
2017-10-02T08:01:48.097Z,16.23
2017-10-02T08:02:48.124Z,16.38
2017-10-02T08:03:48.146Z,16.26
2017-10-02T08:04:48.164Z,16.16
2017-10-02T08:05:48.195Z,16.2
2017-10-02T08:06:48.212Z,16.2
2017-10-02T08:07:48.552Z,16.21
2017-10-02T08:08:48.255Z,16.28
2017-10-02T08:09:48.285Z,16.41
2017-10-02T08:10:48.309Z,16.43
2017-10-02T08:11:48.327Z,16.38
2017-10-02T08:12:48.343Z,16.54
2017-10-02T08:13:48.368Z,16.68
2017-10-02T08:14:48.386Z,16.6
2017-10-02T08:15:48.423Z,16.75
2017-10-02T08:16:48.492Z,16.71
2017-10-02T08:17:48.459Z,16.75
2017-10-02T08:18:48.481Z,16.86
2017-10-02T08:19:48.500Z,16.91
2017-10-02T08:20:48.525Z,16.91
2017-10-02T08:21:48.544Z,16.96
2017-10-02T08:22:48.572Z,16.93
2017-10-02T08:23:48.597Z,16.97
2017-10-02T08:24:48.617Z,17.14
2017-10-02T08:25:48.635Z,17.19
2017-10-02T08:26:48.660Z,17.3
2017-10-02T08:27:48.683Z,17.3
2017-10-02T08:28:48.721Z,17.14
2017-10-02T08:29:48.728Z,17.23
2017-10-02T08:30:49.062Z,17.3
2017-10-02T08:31:49.192Z,17.52
2017-10-02T08:32:49.111Z,17.57
2017-10-02T08:33:48.818Z,17.67
2017-10-02T08:34:48.840Z,17.72
2017-10-02T08:35:48.863Z,17.71
2017-10-02T08:36:48.893Z,17.59
2017-10-02T08:37:48.910Z,17.65
2017-10-02T08:38:48.938Z,17.56
2017-10-02T08:39:48.964Z,17.76
2017-10-02T08:40:48.985Z,17.9
2017-10-02T08:41:49.004Z,17.8
2017-10-02T08:42:49.023Z,17.86
2017-10-02T08:43:49.044Z,17.85
2017-10-02T08:44:49.069Z,17.94
2017-10-02T08:45:49.095Z,18.23
2017-10-02T08:46:49.479Z,18.16
2017-10-02T08:47:49.141Z,18.18
2017-10-02T08:48:49.169Z,18.2
2017-10-02T08:49:49.180Z,18.19
2017-10-02T08:50:49.214Z,18.37
2017-10-02T08:51:49.227Z,18.4
2017-10-02T08:52:49.258Z,18.59
2017-10-02T08:53:49.281Z,18.81
2017-10-02T08:54:49.301Z,18.9
2017-10-02T08:55:49.326Z,19.04
2017-10-02T08:56:49.345Z,19.08
2017-10-02T08:57:49.373Z,18.99
2017-10-02T08:58:49.398Z,19.15
2017-10-02T08:59:49.773Z,19.21
2017-10-02T09:00:49.441Z,19.04
2017-10-02T09:01:49.466Z,19.11
2017-10-02T09:02:49.486Z,18.99
2017-10-02T09:03:49.524Z,19.11
2017-10-02T09:04:49.540Z,19.15
2017-10-02T09:05:49.558Z,19.29
2017-10-02T09:06:49.582Z,19.3
2017-10-02T09:07:49.607Z,19.41
2017-10-02T09:08:49.629Z,19.39
2017-10-02T09:09:49.971Z,19.39
2017-10-02T09:10:49.683Z,19.4
2017-10-02T09:11:49.732Z,19.54
2017-10-02T09:12:50.045Z,19.59
2017-10-02T09:13:49.744Z,19.51
2017-10-02T09:14:49.778Z,19.51
2017-10-02T09:15:49.797Z,19.58
2017-10-02T09:16:49.819Z,19.7
2017-10-02T09:17:49.862Z,19.67
2017-10-02T09:18:49.869Z,19.64
2017-10-02T09:19:49.947Z,19.88
2017-10-02T09:20:49.917Z,19.73
2017-10-02T09:21:49.941Z,19.59
2017-10-02T09:22:49.970Z,19.64
2017-10-02T09:23:50.008Z,19.73
2017-10-02T09:24:50.016Z,19.88
2017-10-02T09:25:50.044Z,20.02
2017-10-02T09:26:50.381Z,20.03
2017-10-02T09:27:50.085Z,20.07
2017-10-02T09:28:50.109Z,20.06
2017-10-02T09:29:50.135Z,20.09
2017-10-02T09:30:50.160Z,20.19
2017-10-02T09:31:50.189Z,20.21
2017-10-02T09:32:50.218Z,20.06
2017-10-02T09:33:50.227Z,20.24
2017-10-02T09:34:50.257Z,20.14
2017-10-02T09:35:50.283Z,20.29
2017-10-02T09:36:50.305Z,20.24
2017-10-02T09:37:50.379Z,20.29
2017-10-02T09:38:50.375Z,20.31
2017-10-02T09:39:50.382Z,20.24
2017-10-02T09:40:50.403Z,20.36
2017-10-02T09:41:50.435Z,20.34
2017-10-02T09:42:50.461Z,20.22
2017-10-02T09:43:50.478Z,20.28
2017-10-02T09:44:50.501Z,20.34
2017-10-02T09:45:50.531Z,20.18
2017-10-02T09:46:50.549Z,20.06
2017-10-02T09:47:50.576Z,20.07
2017-10-02T09:48:50.804Z,20.26
2017-10-02T09:49:50.624Z,20.21
2017-10-02T09:50:50.660Z,20.44
2017-10-02T09:51:50.681Z,20.63
2017-10-02T09:52:51.050Z,20.84
2017-10-02T09:53:50.729Z,20.99
2017-10-02T09:54:50.751Z,21.24
2017-10-02T09:55:50.828Z,21.67
2017-10-02T09:56:50.801Z,21.7
2017-10-02T09:57:50.839Z,22.08
2017-10-02T09:58:50.853Z,22.23
2017-10-02T09:59:50.880Z,22.26
2017-10-02T10:00:51.103Z,22.39
2017-10-02T10:01:50.932Z,22.75
2017-10-02T10:02:50.960Z,22.66
2017-10-02T10:03:50.992Z,22.63
2017-10-02T10:04:51.011Z,22.63
2017-10-02T10:05:51.055Z,22.62
2017-10-02T10:06:51.071Z,22.8
2017-10-02T10:07:51.097Z,22.85
2017-10-02T10:08:51.130Z,23.12
2017-10-02T10:09:51.158Z,23.36
2017-10-02T10:10:51.549Z,23.62
2017-10-02T10:11:51.213Z,23.76
2017-10-02T10:12:51.252Z,23.84
2017-10-02T10:13:51.278Z,24.13
2017-10-02T10:14:51.315Z,24.57
2017-10-02T10:15:51.330Z,24.57
2017-10-02T10:16:51.358Z,24.61
2017-10-02T10:17:51.388Z,24.86
2017-10-02T10:18:51.415Z,24.91
2017-10-02T10:19:51.448Z,24.8
2017-10-02T10:20:51.480Z,24.54
2017-10-02T10:21:51.509Z,24.89
2017-10-02T10:22:51.541Z,25.07
2017-10-02T10:23:51.578Z,25.53
2017-10-02T10:24:51.594Z,25.87
2017-10-02T10:25:51.990Z,26.1
2017-10-02T10:26:51.657Z,26.15
2017-10-02T10:27:51.687Z,26.09
2017-10-02T10:28:51.719Z,26.52
2017-10-02T10:29:51.751Z,26.41
2017-10-02T10:30:51.789Z,26.6
2017-10-02T10:31:51.819Z,26.97
2017-10-02T10:32:51.846Z,27.2
2017-10-02T10:33:51.876Z,27.74
2017-10-02T10:34:51.922Z,28.22
2017-10-02T10:35:51.938Z,28.64
2017-10-02T10:36:51.970Z,29.2
2017-10-02T10:37:52.001Z,29.08
2017-10-02T10:38:52.041Z,28.75
2017-10-02T10:39:52.076Z,28.74
2017-10-02T10:40:52.153Z,29.19
2017-10-02T10:41:52.447Z,29.71
2017-10-02T10:42:52.355Z,29.93
2017-10-02T10:43:52.394Z,29.94
2017-10-02T10:44:52.545Z,29.9
2017-10-02T10:45:52.274Z,30.03
2017-10-02T10:46:52.307Z,29.24
2017-10-02T10:47:52.355Z,28.67
2017-10-02T10:48:52.374Z,28.48
2017-10-02T10:49:52.409Z,28.3
2017-10-02T10:50:52.437Z,28
2017-10-02T10:51:52.470Z,27.54
2017-10-02T10:52:52.513Z,27.4
2017-10-02T10:53:52.532Z,27.63
2017-10-02T10:54:52.567Z,27.54
2017-10-02T10:55:52.599Z,27.4
2017-10-02T10:56:52.679Z,26.93
2017-10-02T10:57:52.658Z,26.9
2017-10-02T10:58:52.692Z,26.77
2017-10-02T10:59:52.720Z,26.93
2017-10-02T11:00:52.753Z,26.85
2017-10-02T11:01:52.789Z,26.9
2017-10-02T11:02:52.817Z,26.78
2017-10-02T11:03:52.846Z,26.18
2017-10-02T11:04:52.880Z,26.03
2017-10-02T11:05:52.923Z,25.87
2017-10-02T11:06:52.946Z,25.95
2017-10-02T11:07:52.965Z,26.16
2017-10-02T11:08:52.996Z,26.1
2017-10-02T11:09:53.035Z,26.13
2017-10-02T11:10:53.071Z,26.33
2017-10-02T11:11:53.108Z,25.87
2017-10-02T11:12:53.114Z,25.73
2017-10-02T11:13:53.140Z,25.53
2017-10-02T11:14:53.168Z,25.58
2017-10-02T11:15:53.200Z,25.4
2017-10-02T11:16:53.245Z,25.54
2017-10-02T11:17:53.253Z,25.68
2017-10-02T11:18:53.286Z,24.99
2017-10-02T11:19:53.325Z,24.68
2017-10-02T11:20:53.368Z,24.54
2017-10-02T11:21:53.367Z,24.57
2017-10-02T11:22:53.393Z,24.77
2017-10-02T11:23:53.423Z,24.73
2017-10-02T11:24:53.761Z,24.39
2017-10-02T11:25:53.478Z,24.26
2017-10-02T11:26:53.512Z,24.13
2017-10-02T11:27:53.858Z,24.18
2017-10-02T11:28:53.614Z,24.28
2017-10-02T11:29:53.593Z,24.39
2017-10-02T11:30:53.619Z,24.23
2017-10-02T11:31:53.647Z,24.26
2017-10-02T11:32:53.670Z,24.28
2017-10-02T11:33:53.751Z,24.53
2017-10-02T11:34:53.730Z,24.65
2017-10-02T11:35:53.761Z,24.53
2017-10-02T11:36:53.803Z,24.57
2017-10-02T11:37:53.805Z,24.29
2017-10-02T11:38:53.837Z,24.39
2017-10-02T11:39:53.865Z,24.42
2017-10-02T11:40:53.892Z,24.13
2017-10-02T11:41:53.916Z,24.13
2017-10-02T11:42:53.951Z,24.24
2017-10-02T11:43:54.025Z,24.48
2017-10-02T11:44:54.022Z,24.55
2017-10-02T11:45:54.030Z,24.61
2017-10-02T11:46:54.054Z,24.84
2017-10-02T11:47:54.138Z,24.73
2017-10-02T11:48:54.425Z,24.89
2017-10-02T11:49:54.148Z,24.74
2017-10-02T11:50:54.166Z,24.54
2017-10-02T11:51:54.195Z,24.17
2017-10-02T11:52:54.531Z,23.96
2017-10-02T11:53:54.241Z,23.62
2017-10-02T11:54:54.581Z,23.54
2017-10-02T11:55:54.616Z,23.63
2017-10-02T11:56:54.330Z,23.48
2017-10-02T11:57:54.349Z,23.46
2017-10-02T11:58:54.432Z,23.74
2017-10-02T11:59:54.416Z,23.62
2017-10-02T12:00:54.453Z,23.59
2017-10-02T12:01:54.483Z,23.74
2017-10-02T12:02:54.483Z,23.99
2017-10-02T12:03:54.532Z,23.98
2017-10-02T12:04:54.544Z,24.01
2017-10-02T12:05:54.575Z,23.86
2017-10-02T12:06:54.605Z,23.88
2017-10-02T12:07:54.631Z,23.93
2017-10-02T12:08:54.647Z,23.86
2017-10-02T12:09:54.676Z,24.06
2017-10-02T12:10:54.715Z,23.98
2017-10-02T12:11:55.628Z,24.02
2017-10-02T12:12:54.759Z,24.21
2017-10-02T12:13:54.786Z,24.24
2017-10-02T12:14:54.827Z,24.4
2017-10-02T12:15:54.894Z,24.53
2017-10-02T12:16:54.891Z,24.63
2017-10-02T12:17:55.267Z,24.55
2017-10-02T12:18:54.927Z,24.5
2017-10-02T12:19:54.945Z,24.68
2017-10-02T12:20:54.976Z,24.84
2017-10-02T12:21:55.001Z,25.08
2017-10-02T12:22:55.056Z,25.32
2017-10-02T12:23:55.069Z,24.95
2017-10-02T12:24:55.109Z,24.93
2017-10-02T12:25:55.220Z,24.84
2017-10-02T12:26:55.138Z,24.69
2017-10-02T12:27:55.168Z,24.66
2017-10-02T12:28:55.195Z,25.03
2017-10-02T12:29:55.232Z,25.22
2017-10-02T12:30:55.559Z,25.53
2017-10-02T12:31:55.333Z,25.96
2017-10-02T12:32:55.629Z,26.09
2017-10-02T12:33:55.341Z,26.34
2017-10-02T12:34:55.372Z,26.18
2017-10-02T12:35:55.392Z,25.98
2017-10-02T12:36:55.426Z,25.72
2017-10-02T12:37:55.773Z,25.83
2017-10-02T12:38:55.491Z,25.99
2017-10-02T12:39:55.510Z,26.25
2017-10-02T12:40:55.546Z,26.19
2017-10-02T12:41:55.571Z,26.25
2017-10-02T12:42:55.598Z,26.21
2017-10-02T12:43:55.636Z,26.36
2017-10-02T12:44:55.680Z,26.23
2017-10-02T12:45:55.693Z,26.48
2017-10-02T12:46:55.718Z,26.47
2017-10-02T12:47:55.794Z,26.7
2017-10-02T12:48:55.783Z,27.35
2017-10-02T12:49:55.816Z,27.89
2017-10-02T12:50:55.835Z,27.55
2017-10-02T12:51:55.915Z,27.77
2017-10-02T12:52:55.896Z,27.47
2017-10-02T12:53:55.931Z,27.75
2017-10-02T12:54:55.960Z,27.49
2017-10-02T12:55:55.997Z,27.54
2017-10-02T12:56:56.019Z,27.22